createdAt,value
2018-07-11T00:07:08.486Z,5.33
2018-07-11T00:17:09.719Z,5.23
2018-07-11T00:27:11.727Z,5.87
2018-07-11T00:37:13.012Z,5.70
2018-07-11T00:47:14.211Z,4.93
2018-07-11T00:57:15.473Z,5.60
2018-07-11T01:07:16.714Z,5.77
2018-07-11T01:17:18.731Z,11.00
2018-07-11T01:27:20.747Z,5.73
2018-07-11T01:37:22.754Z,5.77
2018-07-11T01:47:24.750Z,8.93
2018-07-11T01:57:28.101Z,6.63
2018-07-11T02:07:29.334Z,6.47
2018-07-11T02:17:30.605Z,7.53
2018-07-11T02:27:31.846Z,6.90
2018-07-11T02:37:33.109Z,6.73
2018-07-11T02:47:34.335Z,7.30
2018-07-11T02:57:35.575Z,7.70
2018-07-11T03:07:36.801Z,7.57
2018-07-11T03:17:38.042Z,10.90
2018-07-11T03:27:39.291Z,9.77
2018-07-11T03:37:40.527Z,8.10
2018-07-11T03:47:41.782Z,10.87
2018-07-11T03:57:43.015Z,8.80
2018-07-11T04:07:44.434Z,13.03
2018-07-11T04:17:45.666Z,8.50
2018-07-11T04:27:46.939Z,8.43
2018-07-11T04:37:54.114Z,9.57
2018-07-11T04:47:55.459Z,8.47
2018-07-11T04:57:56.718Z,7.53
2018-07-11T05:18:05.734Z,8.33
2018-07-11T05:28:06.997Z,9.37
2018-07-11T05:38:08.410Z,8.77
2018-07-11T05:48:14.224Z,8.20
2018-07-11T05:58:15.450Z,9.57
2018-07-11T06:08:16.686Z,10.10
2018-07-11T06:18:17.920Z,9.27
2018-07-11T06:28:19.184Z,9.23
2018-07-11T06:38:21.200Z,10.47
2018-07-11T06:48:23.215Z,11.20
2018-07-11T06:58:25.237Z,7.77
2018-07-11T07:08:26.531Z,8.37
2018-07-11T07:18:28.539Z,7.70
2018-07-11T07:28:29.818Z,7.67
2018-07-11T07:38:31.070Z,6.30
2018-07-11T07:48:32.316Z,7.57
2018-07-11T07:58:33.573Z,4.90
2018-07-11T08:08:34.862Z,6.73
2018-07-11T08:18:36.106Z,6.03
2018-07-11T08:28:37.381Z,5.37
2018-07-11T08:58:52.054Z,7.37
2018-07-11T09:08:53.336Z,6.63
2018-07-11T09:18:54.579Z,8.10
2018-07-11T09:28:55.834Z,7.00
2018-07-11T09:38:57.086Z,7.55
2018-07-11T09:48:58.322Z,6.80
2018-07-11T09:58:59.590Z,5.10
2018-07-11T10:09:00.835Z,6.50
2018-07-11T10:19:02.114Z,3.92
2018-07-11T10:29:03.345Z,5.80
2018-07-11T10:39:04.625Z,4.60
2018-07-11T10:49:05.903Z,4.83
2018-07-11T10:59:07.184Z,3.67
2018-07-11T11:09:09.215Z,2.67
2018-07-11T11:19:10.479Z,3.37
2018-07-11T11:29:11.733Z,3.00
2018-07-11T11:39:12.983Z,3.27
2018-07-11T11:49:15.013Z,3.63
2018-07-11T11:59:16.278Z,4.10
2018-07-11T12:09:18.325Z,3.13
2018-07-11T12:19:19.595Z,3.00
2018-07-11T12:29:21.628Z,4.17
2018-07-11T12:49:29.999Z,3.10
2018-07-11T12:59:31.275Z,4.07
2018-07-11T13:09:32.552Z,2.87
2018-07-11T13:19:33.836Z,3.00
2018-07-11T13:29:35.109Z,3.23
2018-07-11T13:39:36.385Z,6.43
2018-07-11T13:49:38.454Z,3.07
2018-07-11T13:59:39.727Z,3.87
2018-07-11T14:09:41.772Z,4.17
2018-07-11T14:19:43.061Z,3.50
2018-07-11T14:29:44.433Z,4.57
2018-07-11T14:39:45.686Z,5.50
2018-07-11T14:49:47.026Z,7.43
2018-07-11T14:59:48.313Z,7.13
2018-07-11T15:09:49.681Z,4.83
2018-07-11T15:29:58.281Z,7.27
2018-07-11T15:39:59.538Z,6.43
2018-07-11T15:50:01.585Z,4.63
2018-07-11T16:00:03.077Z,4.60
2018-07-11T16:10:04.367Z,8.70
2018-07-11T16:20:05.663Z,6.37
2018-07-11T16:30:07.008Z,6.30
2018-07-11T16:40:08.402Z,6.40
2018-07-11T16:50:09.726Z,6.93
2018-07-11T17:00:11.909Z,5.47
2018-07-11T17:10:13.126Z,7.00
2018-07-11T17:20:14.481Z,7.90
2018-07-11T17:30:15.758Z,7.30
2018-07-11T17:50:23.592Z,7.83
2018-07-11T18:00:24.976Z,6.07
2018-07-11T18:20:37.166Z,6.17
2018-07-11T18:30:38.471Z,7.60
2018-07-11T18:40:39.987Z,8.13
2018-07-11T18:50:45.267Z,8.47
2018-07-11T19:00:46.540Z,7.60
2018-07-11T19:51:15.219Z,10.80
2018-07-11T20:21:30.209Z,5.50
2018-07-11T20:31:31.600Z,6.17
2018-07-11T20:41:32.872Z,6.07
2018-07-11T20:51:34.140Z,5.77
2018-07-11T21:01:35.433Z,5.90
2018-07-11T21:11:37.420Z,7.20
2018-07-11T21:21:39.417Z,6.07
2018-07-11T21:51:54.264Z,7.07
2018-07-11T22:01:55.574Z,5.37
2018-07-11T22:11:56.837Z,5.77
2018-07-11T22:21:58.079Z,5.30
2018-07-11T22:31:59.382Z,6.20
2018-07-11T22:42:00.617Z,5.80
2018-07-11T22:52:01.886Z,6.17
2018-07-11T23:02:08.239Z,7.03
2018-07-11T23:12:09.470Z,6.50
2018-07-11T23:22:11.494Z,6.30
2018-07-11T23:32:12.734Z,7.17
2018-07-11T23:42:13.962Z,6.47
2018-07-11T23:52:15.228Z,6.10
